sensor_id;sensor_type;location;lat;lon;timestamp;pressure;altitude;pressure_sealevel;temperature;humidity
22647;BME280;11490;42.726;23.268;2023-02-11T00:01:19;96919.25;;;-2.02;75.82
22647;BME280;11490;42.726;23.268;2023-02-11T00:03:45;96898.06;;;-2.21;76.59
22647;BME280;11490;42.726;23.268;2023-02-11T00:06:10;96919.22;;;-2.24;76.80
22647;BME280;11490;42.726;23.268;2023-02-11T00:08:36;96904.25;;;-2.33;77.23
22647;BME280;11490;42.726;23.268;2023-02-11T00:11:02;96918.00;;;-2.31;77.37
22647;BME280;11490;42.726;23.268;2023-02-11T00:13:28;96921.63;;;-2.10;76.62
22647;BME280;11490;42.726;23.268;2023-02-11T00:15:53;96920.66;;;-2.20;76.26
22647;BME280;11490;42.726;23.268;2023-02-11T00:18:19;96913.63;;;-2.30;76.73
22647;BME280;11490;42.726;23.268;2023-02-11T00:20:45;96917.56;;;-2.25;76.69
22647;BME280;11490;42.726;23.268;2023-02-11T00:23:10;96915.88;;;-2.48;76.75
22647;BME280;11490;42.726;23.268;2023-02-11T00:25:43;96901.50;;;-2.43;77.21
22647;BME280;11490;42.726;23.268;2023-02-11T00:28:09;96915.16;;;-2.39;76.69
22647;BME280;11490;42.726;23.268;2023-02-11T00:30:35;96914.25;;;-2.62;77.34
22647;BME280;11490;42.726;23.268;2023-02-11T00:33:01;96913.00;;;-2.56;76.96
22647;BME280;11490;42.726;23.268;2023-02-11T00:35:27;96918.00;;;-2.42;76.98
22647;BME280;11490;42.726;23.268;2023-02-11T00:37:53;96914.31;;;-2.40;77.07
22647;BME280;11490;42.726;23.268;2023-02-11T00:40:18;96913.72;;;-2.43;77.49
22647;BME280;11490;42.726;23.268;2023-02-11T00:42:44;96904.69;;;-2.50;76.67
22647;BME280;11490;42.726;23.268;2023-02-11T00:45:10;96900.19;;;-2.48;76.37
22647;BME280;11490;42.726;23.268;2023-02-11T00:47:35;96893.72;;;-2.55;76.18
22647;BME280;11490;42.726;23.268;2023-02-11T00:50:02;96901.22;;;-2.62;77.17
22647;BME280;11490;42.726;23.268;2023-02-11T00:52:30;96879.94;;;-2.80;77.25
22647;BME280;11490;42.726;23.268;2023-02-11T00:54:55;96902.75;;;-2.59;77.37
22647;BME280;11490;42.726;23.268;2023-02-11T00:57:21;96899.94;;;-2.45;76.36
22647;BME280;11490;42.726;23.268;2023-02-11T00:59:46;96903.59;;;-2.59;76.65
22647;BME280;11490;42.726;23.268;2023-02-11T01:02:12;96905.84;;;-2.54;77.05
22647;BME280;11490;42.726;23.268;2023-02-11T01:04:37;96883.38;;;-2.79;77.07
22647;BME280;11490;42.726;23.268;2023-02-11T01:07:02;96876.84;;;-2.74;76.55
22647;BME280;11490;42.726;23.268;2023-02-11T01:09:28;96891.59;;;-2.61;76.28
22647;BME280;11490;42.726;23.268;2023-02-11T01:11:53;96902.25;;;-2.76;77.01
22647;BME280;11490;42.726;23.268;2023-02-11T01:14:19;96856.41;;;-2.91;77.27
22647;BME280;11490;42.726;23.268;2023-02-11T01:16:44;96875.59;;;-2.92;76.85
22647;BME280;11490;42.726;23.268;2023-02-11T01:19:10;96903.44;;;-2.68;75.83
22647;BME280;11490;42.726;23.268;2023-02-11T01:21:35;96872.72;;;-3.00;76.72
22647;BME280;11490;42.726;23.268;2023-02-11T01:24:00;96895.06;;;-2.96;77.18
22647;BME280;11490;42.726;23.268;2023-02-11T01:26:26;96872.72;;;-3.00;77.10
22647;BME280;11490;42.726;23.268;2023-02-11T01:28:51;96872.56;;;-3.10;77.18
22647;BME280;11490;42.726;23.268;2023-02-11T01:31:17;96896.16;;;-2.87;77.32
22647;BME280;11490;42.726;23.268;2023-02-11T01:33:42;96879.16;;;-2.93;76.87
22647;BME280;11490;42.726;23.268;2023-02-11T01:36:07;96883.28;;;-3.01;77.21
22647;BME280;11490;42.726;23.268;2023-02-11T01:38:33;96868.88;;;-3.18;78.63
22647;BME280;11490;42.726;23.268;2023-02-11T01:41:04;96859.56;;;-2.98;77.52
22647;BME280;11490;42.726;23.268;2023-02-11T01:43:41;96878.47;;;-2.84;77.36
22647;BME280;11490;42.726;23.268;2023-02-11T01:46:20;96889.31;;;-3.12;77.43
22647;BME280;11490;42.726;23.268;2023-02-11T01:48:55;96879.78;;;-2.89;76.84
22647;BME280;11490;42.726;23.268;2023-02-11T01:51:38;96885.50;;;-3.08;76.26
22647;BME280;11490;42.726;23.268;2023-02-11T01:54:06;96882.22;;;-3.10;77.56
22647;BME280;11490;42.726;23.268;2023-02-11T01:56:54;96878.59;;;-3.20;77.37
22647;BME280;11490;42.726;23.268;2023-02-11T01:59:47;96877.50;;;-2.94;77.02
22647;BME280;11490;42.726;23.268;2023-02-11T02:02:21;96869.97;;;-3.10;76.77
22647;BME280;11490;42.726;23.268;2023-02-11T02:04:56;96880.28;;;-3.08;77.58
22647;BME280;11490;42.726;23.268;2023-02-11T02:07:43;96879.09;;;-3.15;77.04
22647;BME280;11490;42.726;23.268;2023-02-11T02:10:16;96883.06;;;-3.33;77.97
22647;BME280;11490;42.726;23.268;2023-02-11T02:12:43;96879.91;;;-3.38;78.69
22647;BME280;11490;42.726;23.268;2023-02-11T02:15:18;96884.38;;;-3.28;79.15
22647;BME280;11490;42.726;23.268;2023-02-11T02:25:50;96882.88;;;-3.19;77.72
22647;BME280;11490;42.726;23.268;2023-02-11T02:31:52;96869.28;;;-3.12;76.75
22647;BME280;11490;42.726;23.268;2023-02-11T02:37:16;96877.22;;;-3.37;77.62
22647;BME280;11490;42.726;23.268;2023-02-11T02:39:44;96867.53;;;-3.47;77.70
22647;BME280;11490;42.726;23.268;2023-02-11T02:42:13;96858.47;;;-3.66;78.47
22647;BME280;11490;42.726;23.268;2023-02-11T02:44:39;96869.00;;;-3.43;78.66
22647;BME280;11490;42.726;23.268;2023-02-11T02:47:04;96867.78;;;-3.51;78.26
22647;BME280;11490;42.726;23.268;2023-02-11T02:49:29;96860.53;;;-3.71;78.53
22647;BME280;11490;42.726;23.268;2023-02-11T03:00:40;96878.31;;;-3.28;78.01
22647;BME280;11490;42.726;23.268;2023-02-11T03:03:20;96881.56;;;-3.48;78.09
22647;BME280;11490;42.726;23.268;2023-02-11T03:06:04;96868.75;;;-3.40;78.95
22647;BME280;11490;42.726;23.268;2023-02-11T03:08:50;96872.47;;;-3.56;78.55
22647;BME280;11490;42.726;23.268;2023-02-11T03:11:19;96875.81;;;-3.54;78.62
22647;BME280;11490;42.726;23.268;2023-02-11T03:13:47;96870.19;;;-3.84;78.87
22647;BME280;11490;42.726;23.268;2023-02-11T03:16:16;96845.13;;;-3.74;78.63
22647;BME280;11490;42.726;23.268;2023-02-11T03:18:47;96841.78;;;-3.76;78.44
22647;BME280;11490;42.726;23.268;2023-02-11T03:21:15;96874.13;;;-3.42;77.33
22647;BME280;11490;42.726;23.268;2023-02-11T03:23:46;96884.28;;;-3.63;78.21
22647;BME280;11490;42.726;23.268;2023-02-11T03:26:34;96880.53;;;-3.59;78.65
22647;BME280;11490;42.726;23.268;2023-02-11T03:29:16;96887.28;;;-3.80;79.32
22647;BME280;11490;42.726;23.268;2023-02-11T03:32:03;96881.97;;;-3.55;78.62
22647;BME280;11490;42.726;23.268;2023-02-11T03:34:39;96876.72;;;-3.66;79.26
22647;BME280;11490;42.726;23.268;2023-02-11T03:37:19;96880.34;;;-3.68;78.94
22647;BME280;11490;42.726;23.268;2023-02-11T03:39:59;96874.81;;;-4.00;78.93
22647;BME280;11490;42.726;23.268;2023-02-11T03:42:30;96867.28;;;-3.92;79.55
22647;BME280;11490;42.726;23.268;2023-02-11T03:45:02;96865.88;;;-3.72;79.10
22647;BME280;11490;42.726;23.268;2023-02-11T03:47:31;96876.63;;;-3.77;79.13
22647;BME280;11490;42.726;23.268;2023-02-11T03:49:58;96876.19;;;-3.71;77.78
22647;BME280;11490;42.726;23.268;2023-02-11T03:52:25;96881.84;;;-3.77;78.36
22647;BME280;11490;42.726;23.268;2023-02-11T03:54:54;96874.13;;;-3.78;78.75
22647;BME280;11490;42.726;23.268;2023-02-11T03:57:20;96873.47;;;-3.69;77.73
22647;BME280;11490;42.726;23.268;2023-02-11T04:00:05;96880.75;;;-3.62;77.44
22647;BME280;11490;42.726;23.268;2023-02-11T04:02:32;96892.06;;;-3.74;77.27
22647;BME280;11490;42.726;23.268;2023-02-11T04:04:58;96889.91;;;-3.80;78.06
22647;BME280;11490;42.726;23.268;2023-02-11T04:07:26;96846.44;;;-3.92;78.16
22647;BME280;11490;42.726;23.268;2023-02-11T04:09:52;96887.34;;;-3.69;77.78
22647;BME280;11490;42.726;23.268;2023-02-11T04:12:17;96881.81;;;-3.64;77.48
22647;BME280;11490;42.726;23.268;2023-02-11T04:14:43;96876.91;;;-3.69;77.33
22647;BME280;11490;42.726;23.268;2023-02-11T04:17:08;96876.63;;;-3.77;78.69
22647;BME280;11490;42.726;23.268;2023-02-11T04:19:34;96866.00;;;-3.74;77.56
22647;BME280;11490;42.726;23.268;2023-02-11T04:21:59;96881.41;;;-3.71;77.36
22647;BME280;11490;42.726;23.268;2023-02-11T04:24:25;96856.66;;;-3.89;77.33
22647;BME280;11490;42.726;23.268;2023-02-11T04:26:50;96861.88;;;-3.89;77.47
22647;BME280;11490;42.726;23.268;2023-02-11T04:29:16;96860.41;;;-3.93;78.33
22647;BME280;11490;42.726;23.268;2023-02-11T04:31:42;96850.41;;;-3.99;77.85
22647;BME280;11490;42.726;23.268;2023-02-11T04:34:07;96819.13;;;-4.36;77.53
22647;BME280;11490;42.726;23.268;2023-02-11T04:36:33;96873.97;;;-4.01;78.75
22647;BME280;11490;42.726;23.268;2023-02-11T04:38:58;96872.63;;;-4.06;77.89
22647;BME280;11490;42.726;23.268;2023-02-11T04:41:23;96868.59;;;-4.23;78.19
22647;BME280;11490;42.726;23.268;2023-02-11T04:43:49;96848.63;;;-4.35;78.74
22647;BME280;11490;42.726;23.268;2023-02-11T04:46:14;96847.56;;;-4.45;78.61
22647;BME280;11490;42.726;23.268;2023-02-11T04:48:39;96858.81;;;-4.45;78.73
22647;BME280;11490;42.726;23.268;2023-02-11T04:51:05;96865.06;;;-4.22;79.58
22647;BME280;11490;42.726;23.268;2023-02-11T04:53:30;96866.75;;;-4.34;78.57
22647;BME280;11490;42.726;23.268;2023-02-11T04:55:56;96863.41;;;-4.36;78.76
22647;BME280;11490;42.726;23.268;2023-02-11T04:58:21;96868.06;;;-4.41;80.21
22647;BME280;11490;42.726;23.268;2023-02-11T05:00:47;96851.72;;;-4.30;79.24
22647;BME280;11490;42.726;23.268;2023-02-11T05:03:12;96859.09;;;-4.11;78.69
22647;BME280;11490;42.726;23.268;2023-02-11T05:05:39;96860.84;;;-3.99;78.54
22647;BME280;11490;42.726;23.268;2023-02-11T05:08:05;96856.13;;;-3.94;78.00
22647;BME280;11490;42.726;23.268;2023-02-11T05:10:31;96855.28;;;-3.82;76.75
22647;BME280;11490;42.726;23.268;2023-02-11T05:12:56;96854.97;;;-3.90;76.13
22647;BME280;11490;42.726;23.268;2023-02-11T05:15:22;96840.19;;;-4.02;76.39
22647;BME280;11490;42.726;23.268;2023-02-11T05:17:47;96856.47;;;-3.99;75.64
22647;BME280;11490;42.726;23.268;2023-02-11T05:20:13;96836.28;;;-4.20;75.66
22647;BME280;11490;42.726;23.268;2023-02-11T05:22:39;96856.25;;;-4.08;76.33
22647;BME280;11490;42.726;23.268;2023-02-11T05:25:05;96822.47;;;-4.46;76.94
22647;BME280;11490;42.726;23.268;2023-02-11T05:27:30;96843.19;;;-4.45;77.03
22647;BME280;11490;42.726;23.268;2023-02-11T05:29:56;96864.16;;;-4.34;77.46
22647;BME280;11490;42.726;23.268;2023-02-11T05:32:21;96857.78;;;-4.30;77.42
22647;BME280;11490;42.726;23.268;2023-02-11T05:34:46;96839.25;;;-4.38;77.57
22647;BME280;11490;42.726;23.268;2023-02-11T05:37:12;96852.38;;;-4.52;78.13
22647;BME280;11490;42.726;23.268;2023-02-11T05:39:37;96829.28;;;-4.82;79.15
22647;BME280;11490;42.726;23.268;2023-02-11T05:42:03;96848.31;;;-4.56;78.74
22647;BME280;11490;42.726;23.268;2023-02-11T05:44:28;96846.75;;;-4.46;78.13
22647;BME280;11490;42.726;23.268;2023-02-11T05:46:54;96817.19;;;-4.70;77.76
22647;BME280;11490;42.726;23.268;2023-02-11T05:49:19;96855.28;;;-4.44;77.97
22647;BME280;11490;42.726;23.268;2023-02-11T05:51:45;96850.50;;;-4.62;77.85
22647;BME280;11490;42.726;23.268;2023-02-11T05:54:10;96830.72;;;-4.90;78.80
22647;BME280;11490;42.726;23.268;2023-02-11T05:56:36;96841.34;;;-4.68;77.54
22647;BME280;11490;42.726;23.268;2023-02-11T05:59:01;96848.84;;;-4.76;77.70
22647;BME280;11490;42.726;23.268;2023-02-11T06:01:28;96860.69;;;-4.72;77.74
22647;BME280;11490;42.726;23.268;2023-02-11T06:03:54;96874.66;;;-4.73;77.28
22647;BME280;11490;42.726;23.268;2023-02-11T06:06:19;96864.22;;;-5.11;78.77
22647;BME280;11490;42.726;23.268;2023-02-11T06:08:44;96844.63;;;-5.17;78.66
22647;BME280;11490;42.726;23.268;2023-02-11T06:11:10;96839.97;;;-5.12;77.86
22647;BME280;11490;42.726;23.268;2023-02-11T06:13:35;96878.56;;;-4.93;78.45
22647;BME280;11490;42.726;23.268;2023-02-11T06:16:01;96854.88;;;-4.88;77.80
22647;BME280;11490;42.726;23.268;2023-02-11T06:18:27;96846.09;;;-5.13;78.74
22647;BME280;11490;42.726;23.268;2023-02-11T06:20:54;96869.13;;;-4.81;78.54
22647;BME280;11490;42.726;23.268;2023-02-11T06:23:19;96861.31;;;-4.81;77.71
22647;BME280;11490;42.726;23.268;2023-02-11T06:25:45;96842.94;;;-5.30;79.23
22647;BME280;11490;42.726;23.268;2023-02-11T06:28:10;96879.88;;;-4.73;78.90
22647;BME280;11490;42.726;23.268;2023-02-11T06:30:36;96869.84;;;-4.79;77.92
22647;BME280;11490;42.726;23.268;2023-02-11T06:33:02;96835.19;;;-4.67;77.26
22647;BME280;11490;42.726;23.268;2023-02-11T06:35:28;96853.19;;;-4.26;76.51
22647;BME280;11490;42.726;23.268;2023-02-11T06:37:53;96854.66;;;-3.62;75.22
22647;BME280;11490;42.726;23.268;2023-02-11T06:40:19;96886.13;;;-3.04;73.36
22647;BME280;11490;42.726;23.268;2023-02-11T06:42:44;96853.31;;;-2.85;71.24
22647;BME280;11490;42.726;23.268;2023-02-11T06:45:10;96877.72;;;-2.40;69.89
22647;BME280;11490;42.726;23.268;2023-02-11T06:47:37;96846.63;;;-2.20;68.78
22647;BME280;11490;42.726;23.268;2023-02-11T06:50:05;96891.34;;;-1.36;67.10
22647;BME280;11490;42.726;23.268;2023-02-11T06:52:32;96866.03;;;-1.03;65.36
22647;BME280;11490;42.726;23.268;2023-02-11T06:54:57;96863.09;;;-1.21;64.72
22647;BME280;11490;42.726;23.268;2023-02-11T06:57:23;96883.28;;;-0.80;64.29
22647;BME280;11490;42.726;23.268;2023-02-11T06:59:48;96877.03;;;-0.26;62.05
22647;BME280;11490;42.726;23.268;2023-02-11T07:02:14;96875.16;;;0.94;59.68
22647;BME280;11490;42.726;23.268;2023-02-11T07:04:39;96868.97;;;2.00;56.37
22647;BME280;11490;42.726;23.268;2023-02-11T07:07:05;96863.44;;;2.75;54.06
22647;BME280;11490;42.726;23.268;2023-02-11T07:09:30;96895.13;;;3.28;52.09
22647;BME280;11490;42.726;23.268;2023-02-11T07:11:56;96856.78;;;2.98;51.63
22647;BME280;11490;42.726;23.268;2023-02-11T07:14:21;96846.03;;;1.82;54.21
22647;BME280;11490;42.726;23.268;2023-02-11T07:16:46;96848.72;;;1.53;54.65
22647;BME280;11490;42.726;23.268;2023-02-11T07:19:12;96841.03;;;0.94;56.76
22647;BME280;11490;42.726;23.268;2023-02-11T07:21:37;96876.38;;;0.71;58.18
22647;BME280;11490;42.726;23.268;2023-02-11T07:24:07;96867.66;;;-0.19;62.28
22647;BME280;11490;42.726;23.268;2023-02-11T07:26:33;96840.19;;;-0.25;62.21
22647;BME280;11490;42.726;23.268;2023-02-11T07:28:58;96848.69;;;-0.63;64.29
22647;BME280;11490;42.726;23.268;2023-02-11T07:31:26;96841.75;;;-1.37;66.60
22647;BME280;11490;42.726;23.268;2023-02-11T07:33:53;96846.75;;;-1.34;68.41
22647;BME280;11490;42.726;23.268;2023-02-11T07:36:20;96857.03;;;-1.22;69.10
22647;BME280;11490;42.726;23.268;2023-02-11T07:38:45;96842.56;;;-1.26;70.02
22647;BME280;11490;42.726;23.268;2023-02-11T07:41:13;96855.47;;;-1.13;70.22
22647;BME280;11490;42.726;23.268;2023-02-11T07:43:39;96856.91;;;-1.20;70.26
22647;BME280;11490;42.726;23.268;2023-02-11T07:46:07;96833.13;;;-1.49;71.28
22647;BME280;11490;42.726;23.268;2023-02-11T07:48:33;96810.00;;;-1.44;71.38
22647;BME280;11490;42.726;23.268;2023-02-11T07:51:13;96813.91;;;-1.38;72.16
22647;BME280;11490;42.726;23.268;2023-02-11T07:53:39;96815.66;;;-1.28;72.81
22647;BME280;11490;42.726;23.268;2023-02-11T07:56:05;96826.03;;;-0.85;71.82
22647;BME280;11490;42.726;23.268;2023-02-11T07:58:32;96838.03;;;-0.41;70.48
22647;BME280;11490;42.726;23.268;2023-02-11T08:01:05;96813.00;;;-0.75;70.89
22647;BME280;11490;42.726;23.268;2023-02-11T08:03:32;96846.09;;;-0.74;70.81
22647;BME280;11490;42.726;23.268;2023-02-11T08:05:57;96834.09;;;-0.56;72.18
22647;BME280;11490;42.726;23.268;2023-02-11T08:08:26;96841.41;;;-0.29;71.69
22647;BME280;11490;42.726;23.268;2023-02-11T08:10:52;96800.47;;;-0.51;71.72
22647;BME280;11490;42.726;23.268;2023-02-11T08:13:17;96838.69;;;-0.69;72.74
22647;BME280;11490;42.726;23.268;2023-02-11T08:15:42;96801.75;;;-0.66;72.70
22647;BME280;11490;42.726;23.268;2023-02-11T08:18:08;96819.28;;;-0.36;72.45
22647;BME280;11490;42.726;23.268;2023-02-11T08:20:33;96810.25;;;-0.22;72.28
22647;BME280;11490;42.726;23.268;2023-02-11T08:22:58;96831.56;;;0.34;71.68
22647;BME280;11490;42.726;23.268;2023-02-11T08:25:24;96827.84;;;1.33;69.55
22647;BME280;11490;42.726;23.268;2023-02-11T08:27:49;96823.63;;;2.33;65.18
22647;BME280;11490;42.726;23.268;2023-02-11T08:30:15;96808.97;;;2.76;62.30
22647;BME280;11490;42.726;23.268;2023-02-11T08:32:40;96831.41;;;4.18;58.49
22647;BME280;11490;42.726;23.268;2023-02-11T08:35:06;96820.72;;;6.00;53.24
22647;BME280;11490;42.726;23.268;2023-02-11T08:37:32;96820.84;;;6.23;50.14
22647;BME280;11490;42.726;23.268;2023-02-11T08:39:58;96806.00;;;5.81;51.18
22647;BME280;11490;42.726;23.268;2023-02-11T08:42:23;96824.09;;;7.48;47.12
22647;BME280;11490;42.726;23.268;2023-02-11T08:44:49;96826.69;;;6.88;46.89
22647;BME280;11490;42.726;23.268;2023-02-11T08:47:14;96840.91;;;7.78;46.04
22647;BME280;11490;42.726;23.268;2023-02-11T08:49:39;96822.78;;;7.21;46.28
22647;BME280;11490;42.726;23.268;2023-02-11T08:52:07;96817.34;;;8.13;44.49
22647;BME280;11490;42.726;23.268;2023-02-11T08:54:32;96828.91;;;8.49;42.63
22647;BME280;11490;42.726;23.268;2023-02-11T08:56:58;96826.81;;;7.17;46.04
22647;BME280;11490;42.726;23.268;2023-02-11T08:59:26;96824.75;;;6.74;44.82
22647;BME280;11490;42.726;23.268;2023-02-11T09:01:51;96826.91;;;7.47;44.92
22647;BME280;11490;42.726;23.268;2023-02-11T09:04:17;96817.75;;;7.72;43.40
22647;BME280;11490;42.726;23.268;2023-02-11T09:06:42;96826.91;;;8.51;42.40
22647;BME280;11490;42.726;23.268;2023-02-11T09:09:11;96822.13;;;8.46;42.28
22647;BME280;11490;42.726;23.268;2023-02-11T09:11:38;96805.72;;;7.76;42.87
22647;BME280;11490;42.726;23.268;2023-02-11T09:14:05;96816.03;;;8.08;42.84
22647;BME280;11490;42.726;23.268;2023-02-11T09:16:33;96831.97;;;8.08;41.63
22647;BME280;11490;42.726;23.268;2023-02-11T09:19:00;96811.53;;;7.80;41.79
22647;BME280;11490;42.726;23.268;2023-02-11T09:21:27;96819.25;;;7.06;43.83
22647;BME280;11490;42.726;23.268;2023-02-11T09:23:52;96811.06;;;6.93;42.68
22647;BME280;11490;42.726;23.268;2023-02-11T09:26:24;96816.28;;;7.47;42.92
22647;BME280;11490;42.726;23.268;2023-02-11T09:28:50;96820.75;;;7.69;43.14
22647;BME280;11490;42.726;23.268;2023-02-11T09:31:19;96821.13;;;7.20;43.97
22647;BME280;11490;42.726;23.268;2023-02-11T09:33:47;96815.75;;;7.28;43.79
22647;BME280;11490;42.726;23.268;2023-02-11T09:36:15;96772.38;;;6.76;43.76
22647;BME280;11490;42.726;23.268;2023-02-11T09:38:42;96809.34;;;7.00;44.24
22647;BME280;11490;42.726;23.268;2023-02-11T09:43:51;96794.03;;;7.10;43.20
22647;BME280;11490;42.726;23.268;2023-02-11T09:46:18;96792.25;;;6.80;44.27
22647;BME280;11490;42.726;23.268;2023-02-11T09:48:46;96772.31;;;6.84;44.35
22647;BME280;11490;42.726;23.268;2023-02-11T09:54:04;96777.66;;;6.14;45.30
22647;BME280;11490;42.726;23.268;2023-02-11T09:56:31;96782.38;;;6.35;44.69
22647;BME280;11490;42.726;23.268;2023-02-11T09:58:57;96731.31;;;6.10;45.01
22647;BME280;11490;42.726;23.268;2023-02-11T10:02:03;96765.00;;;6.86;43.75
22647;BME280;11490;42.726;23.268;2023-02-11T10:10:50;96695.34;;;6.46;43.57
22647;BME280;11490;42.726;23.268;2023-02-11T10:16:05;96743.50;;;6.81;42.33
22647;BME280;11490;42.726;23.268;2023-02-11T10:24:13;96706.03;;;6.30;43.92
22647;BME280;11490;42.726;23.268;2023-02-11T10:26:40;96687.59;;;6.14;44.92
22647;BME280;11490;42.726;23.268;2023-02-11T10:31:48;96685.69;;;6.53;42.76
22647;BME280;11490;42.726;23.268;2023-02-11T10:34:15;96678.09;;;6.96;40.78
22647;BME280;11490;42.726;23.268;2023-02-11T10:36:42;96679.09;;;6.95;41.55
22647;BME280;11490;42.726;23.268;2023-02-11T10:39:22;96650.31;;;6.84;41.47
22647;BME280;11490;42.726;23.268;2023-02-11T10:41:49;96670.56;;;6.62;41.75
22647;BME280;11490;42.726;23.268;2023-02-11T10:44:59;96657.59;;;6.67;40.87
22647;BME280;11490;42.726;23.268;2023-02-11T10:47:30;96626.84;;;6.35;41.33
22647;BME280;11490;42.726;23.268;2023-02-11T10:49:57;96617.38;;;6.18;43.42
22647;BME280;11490;42.726;23.268;2023-02-11T10:52:28;96618.31;;;6.25;43.91
22647;BME280;11490;42.726;23.268;2023-02-11T10:55:36;96645.16;;;6.22;42.87
22647;BME280;11490;42.726;23.268;2023-02-11T10:57:59;96617.28;;;5.72;43.67
22647;BME280;11490;42.726;23.268;2023-02-11T11:03:06;96616.84;;;5.92;41.80
22647;BME280;11490;42.726;23.268;2023-02-11T11:05:51;96605.28;;;5.85;41.13
22647;BME280;11490;42.726;23.268;2023-02-11T11:08:18;96612.88;;;5.96;41.11
22647;BME280;11490;42.726;23.268;2023-02-11T11:11:01;96616.88;;;5.84;42.64
22647;BME280;11490;42.726;23.268;2023-02-11T11:13:37;96612.22;;;5.94;42.57
22647;BME280;11490;42.726;23.268;2023-02-11T11:18:41;96616.00;;;5.52;43.00
22647;BME280;11490;42.726;23.268;2023-02-11T11:21:18;96601.78;;;5.53;42.51
22647;BME280;11490;42.726;23.268;2023-02-11T11:23:56;96600.13;;;5.52;42.95
22647;BME280;11490;42.726;23.268;2023-02-11T11:26:25;96596.84;;;5.50;43.57
22647;BME280;11490;42.726;23.268;2023-02-11T11:28:58;96596.22;;;5.40;45.26
22647;BME280;11490;42.726;23.268;2023-02-11T11:31:46;96585.06;;;5.14;45.72
22647;BME280;11490;42.726;23.268;2023-02-11T11:34:35;96571.91;;;4.89;46.20
22647;BME280;11490;42.726;23.268;2023-02-11T11:37:31;96585.78;;;4.99;46.74
22647;BME280;11490;42.726;23.268;2023-02-11T11:39:59;96593.38;;;5.02;46.05
22647;BME280;11490;42.726;23.268;2023-02-11T11:42:27;96595.00;;;5.03;45.71
22647;BME280;11490;42.726;23.268;2023-02-11T11:45:02;96560.41;;;4.50;45.87
22647;BME280;11490;42.726;23.268;2023-02-11T11:47:33;96587.63;;;4.83;46.40
22647;BME280;11490;42.726;23.268;2023-02-11T11:58:23;96571.63;;;4.60;44.26
22647;BME280;11490;42.726;23.268;2023-02-11T12:17:38;96537.41;;;4.75;44.65
22647;BME280;11490;42.726;23.268;2023-02-11T12:20:16;96519.47;;;4.54;44.68
22647;BME280;11490;42.726;23.268;2023-02-11T12:28:37;96520.44;;;4.61;44.80
22647;BME280;11490;42.726;23.268;2023-02-11T12:37:08;96468.34;;;4.31;45.13
22647;BME280;11490;42.726;23.268;2023-02-11T12:40:00;96493.88;;;4.54;47.24
22647;BME280;11490;42.726;23.268;2023-02-11T12:45:30;96508.53;;;4.57;47.48
22647;BME280;11490;42.726;23.268;2023-02-11T12:48:16;96492.69;;;4.57;48.02
22647;BME280;11490;42.726;23.268;2023-02-11T12:51:18;96493.06;;;4.54;46.95
22647;BME280;11490;42.726;23.268;2023-02-11T12:54:46;96490.72;;;4.51;45.24
22647;BME280;11490;42.726;23.268;2023-02-11T13:00:02;96482.13;;;4.57;45.20
22647;BME280;11490;42.726;23.268;2023-02-11T13:05:41;96466.63;;;4.54;46.16
22647;BME280;11490;42.726;23.268;2023-02-11T13:08:16;96484.13;;;4.55;45.19
22647;BME280;11490;42.726;23.268;2023-02-11T13:10:51;96476.19;;;4.63;44.86
22647;BME280;11490;42.726;23.268;2023-02-11T13:13:21;96481.25;;;4.73;45.18
22647;BME280;11490;42.726;23.268;2023-02-11T13:16:16;96480.09;;;4.75;45.00
22647;BME280;11490;42.726;23.268;2023-02-11T13:18:50;96466.94;;;4.51;43.89
22647;BME280;11490;42.726;23.268;2023-02-11T13:21:56;96469.22;;;4.70;43.44
22647;BME280;11490;42.726;23.268;2023-02-11T13:24:46;96470.22;;;4.69;43.18
22647;BME280;11490;42.726;23.268;2023-02-11T13:30:23;96460.59;;;4.76;43.35
22647;BME280;11490;42.726;23.268;2023-02-11T13:37:54;96435.88;;;4.61;44.24
22647;BME280;11490;42.726;23.268;2023-02-11T13:40:23;96456.69;;;4.64;42.74
22647;BME280;11490;42.726;23.268;2023-02-11T13:42:57;96453.66;;;4.75;43.56
22647;BME280;11490;42.726;23.268;2023-02-11T13:48:31;96448.75;;;4.72;42.37
22647;BME280;11490;42.726;23.268;2023-02-11T13:51:02;96440.28;;;4.77;41.42
22647;BME280;11490;42.726;23.268;2023-02-11T13:53:56;96445.09;;;4.73;40.92
22647;BME280;11490;42.726;23.268;2023-02-11T13:56:41;96427.25;;;4.75;41.38
22647;BME280;11490;42.726;23.268;2023-02-11T14:16:15;96422.16;;;4.65;43.12
22647;BME280;11490;42.726;23.268;2023-02-11T14:26:48;96418.94;;;4.47;44.17
22647;BME280;11490;42.726;23.268;2023-02-11T14:32:43;96420.09;;;4.37;44.59
22647;BME280;11490;42.726;23.268;2023-02-11T14:35:26;96412.81;;;4.47;44.88
22647;BME280;11490;42.726;23.268;2023-02-11T14:42:54;96429.88;;;4.28;45.36
22647;BME280;11490;42.726;23.268;2023-02-11T14:45:26;96423.25;;;4.40;44.64
22647;BME280;11490;42.726;23.268;2023-02-11T14:48:07;96422.75;;;4.37;44.77
22647;BME280;11490;42.726;23.268;2023-02-11T14:50:50;96428.69;;;4.47;45.35
22647;BME280;11490;42.726;23.268;2023-02-11T14:53:20;96414.84;;;4.29;44.74
22647;BME280;11490;42.726;23.268;2023-02-11T14:55:50;96420.63;;;4.32;45.94
22647;BME280;11490;42.726;23.268;2023-02-11T14:58:28;96413.19;;;4.28;46.01
22647;BME280;11490;42.726;23.268;2023-02-11T15:01:03;96415.50;;;4.31;45.87
22647;BME280;11490;42.726;23.268;2023-02-11T15:03:37;96414.84;;;4.29;45.49
22647;BME280;11490;42.726;23.268;2023-02-11T15:06:07;96403.47;;;4.28;45.77
22647;BME280;11490;42.726;23.268;2023-02-11T15:08:42;96392.47;;;4.08;45.30
22647;BME280;11490;42.726;23.268;2023-02-11T15:11:11;96404.66;;;4.17;45.41
22647;BME280;11490;42.726;23.268;2023-02-11T15:13:37;96380.44;;;3.98;45.34
22647;BME280;11490;42.726;23.268;2023-02-11T15:16:08;96394.44;;;4.06;45.83
22647;BME280;11490;42.726;23.268;2023-02-11T15:18:40;96391.16;;;3.88;46.41
22647;BME280;11490;42.726;23.268;2023-02-11T15:21:09;96377.50;;;3.60;46.72
22647;BME280;11490;42.726;23.268;2023-02-11T15:23:35;96384.28;;;3.71;47.01
22647;BME280;11490;42.726;23.268;2023-02-11T15:26:01;96385.91;;;3.72;47.70
22647;BME280;11490;42.726;23.268;2023-02-11T15:28:33;96386.25;;;3.69;46.88
22647;BME280;11490;42.726;23.268;2023-02-11T15:31:13;96388.22;;;3.67;46.77